createdAt,value
2018-06-09T00:02:02.915Z,99.90
2018-06-09T00:04:07.847Z,99.90
2018-06-09T00:06:12.810Z,99.90
2018-06-09T00:08:18.683Z,99.90
2018-06-09T00:10:23.538Z,99.90
2018-06-09T00:12:28.302Z,99.90
2018-06-09T00:14:33.258Z,99.90
2018-06-09T00:16:38.373Z,99.90
2018-06-09T00:18:43.153Z,99.90
2018-06-09T00:20:48.010Z,99.90
2018-06-09T00:22:52.797Z,99.90
2018-06-09T00:24:57.688Z,99.90
2018-06-09T00:27:02.546Z,99.90
2018-06-09T00:31:11.946Z,99.90
2018-06-09T00:33:16.742Z,99.90
2018-06-09T00:35:21.494Z,99.90
2018-06-09T00:37:26.283Z,99.90
2018-06-09T00:39:30.987Z,99.90
2018-06-09T00:41:35.737Z,99.90
2018-06-09T00:43:40.558Z,99.90
2018-06-09T00:45:45.386Z,99.90
2018-06-09T00:47:50.211Z,99.90
2018-06-09T00:49:54.905Z,99.90
2018-06-09T00:51:59.664Z,99.90
2018-06-09T00:54:04.517Z,99.90
2018-06-09T00:56:47.539Z,99.90
2018-06-09T00:58:52.282Z,99.90
2018-06-09T01:00:57.019Z,99.90
2018-06-09T01:03:01.839Z,99.90
2018-06-09T01:05:06.568Z,99.90
2018-06-09T01:09:15.746Z,99.90
2018-06-09T01:11:20.527Z,99.90
2018-06-09T01:13:25.399Z,99.90
2018-06-09T01:15:30.262Z,99.90
2018-06-09T01:17:35.138Z,99.90
2018-06-09T01:19:40.069Z,99.90
2018-06-09T01:21:44.885Z,99.90
2018-06-09T01:23:49.759Z,99.90
2018-06-09T01:25:54.530Z,99.90
2018-06-09T01:27:59.263Z,99.90
2018-06-09T01:30:05.859Z,99.90
2018-06-09T01:32:10.654Z,99.90
2018-06-09T01:34:15.499Z,99.90
2018-06-09T01:36:20.204Z,99.90
2018-06-09T01:38:24.962Z,99.90
2018-06-09T01:40:29.778Z,99.90
2018-06-09T01:42:34.582Z,99.90
2018-06-09T01:44:39.352Z,99.90
2018-06-09T01:46:44.046Z,99.90
2018-06-09T01:48:48.782Z,99.90
2018-06-09T01:50:53.591Z,99.90
2018-06-09T01:52:58.565Z,99.90
2018-06-09T01:55:03.314Z,99.90
2018-06-09T01:57:08.001Z,99.90
2018-06-09T01:59:12.662Z,99.90
2018-06-09T02:01:17.399Z,99.90
2018-06-09T02:03:22.100Z,99.90
2018-06-09T02:05:26.892Z,99.90
2018-06-09T02:07:31.643Z,99.90
2018-06-09T02:09:36.448Z,99.90
2018-06-09T02:11:41.214Z,99.90
2018-06-09T02:13:45.925Z,99.90
2018-06-09T02:15:50.777Z,99.90
2018-06-09T02:17:55.478Z,99.90
2018-06-09T02:20:00.185Z,99.90
2018-06-09T02:22:04.910Z,99.90
2018-06-09T02:24:09.722Z,99.90
2018-06-09T02:26:14.460Z,99.90
2018-06-09T02:28:19.248Z,99.90
2018-06-09T02:30:23.956Z,99.90
2018-06-09T02:32:28.672Z,99.90
2018-06-09T02:34:33.486Z,99.90
2018-06-09T02:36:38.305Z,99.90
2018-06-09T02:38:43.146Z,99.90
2018-06-09T02:40:48.050Z,99.90
2018-06-09T02:42:52.777Z,99.90
2018-06-09T02:44:57.535Z,99.90
2018-06-09T02:47:02.494Z,99.90
2018-06-09T02:49:07.277Z,99.90
2018-06-09T02:51:12.208Z,99.90
2018-06-09T02:53:16.940Z,99.90
2018-06-09T02:55:21.900Z,99.90
2018-06-09T02:57:26.707Z,99.90
2018-06-09T02:59:31.570Z,99.90
2018-06-09T03:01:36.245Z,99.90
2018-06-09T03:03:41.141Z,99.90
2018-06-09T03:05:45.980Z,99.90
2018-06-09T03:07:50.800Z,99.90
2018-06-09T03:09:55.601Z,99.90
2018-06-09T03:12:00.453Z,99.90
2018-06-09T03:14:05.324Z,99.90
2018-06-09T03:16:10.361Z,99.90
2018-06-09T03:18:15.170Z,99.90
2018-06-09T03:20:19.963Z,99.90
2018-06-09T03:22:24.776Z,99.90
2018-06-09T03:24:29.666Z,99.90
2018-06-09T03:26:34.441Z,99.90
2018-06-09T03:28:39.182Z,99.90
2018-06-09T03:30:43.894Z,99.90
2018-06-09T03:32:48.980Z,99.90
2018-06-09T03:34:53.858Z,99.90
2018-06-09T03:36:58.687Z,99.90
2018-06-09T03:39:04.068Z,99.90
2018-06-09T03:41:08.858Z,99.90
2018-06-09T03:43:13.716Z,99.90
2018-06-09T03:45:18.489Z,99.90
2018-06-09T03:47:23.425Z,99.90
2018-06-09T03:49:28.298Z,99.90
2018-06-09T03:51:33.185Z,99.90
2018-06-09T03:53:38.090Z,99.90
2018-06-09T03:55:42.897Z,99.90
2018-06-09T03:57:47.883Z,99.90
2018-06-09T03:59:52.651Z,99.90
2018-06-09T04:01:57.440Z,99.90
2018-06-09T04:04:02.400Z,99.90
2018-06-09T04:06:07.349Z,99.90
2018-06-09T04:08:12.186Z,99.90
2018-06-09T04:10:16.982Z,99.90
2018-06-09T04:12:21.757Z,99.90
2018-06-09T04:14:26.486Z,99.90
2018-06-09T04:16:32.568Z,99.90
2018-06-09T04:18:37.323Z,99.90
2018-06-09T04:22:46.889Z,99.90
2018-06-09T04:24:51.762Z,99.90
2018-06-09T04:26:56.613Z,99.90
2018-06-09T04:29:02.091Z,99.90
2018-06-09T04:31:07.117Z,99.90
2018-06-09T04:33:11.937Z,99.90
2018-06-09T04:35:16.657Z,99.90
2018-06-09T04:37:21.452Z,99.90
2018-06-09T04:39:26.164Z,99.90
2018-06-09T04:41:31.272Z,99.90
2018-06-09T04:43:36.288Z,99.90
2018-06-09T04:45:41.414Z,99.90
2018-06-09T04:47:46.298Z,99.90
2018-06-09T04:49:51.082Z,99.90
2018-06-09T04:51:55.986Z,99.90
2018-06-09T04:54:00.893Z,99.90
2018-06-09T04:56:05.870Z,99.90
2018-06-09T04:58:10.909Z,99.90
2018-06-09T05:00:15.779Z,99.90
2018-06-09T05:02:20.641Z,99.90
2018-06-09T05:04:25.493Z,99.90
2018-06-09T05:06:30.607Z,99.90
2018-06-09T05:08:35.457Z,99.90
2018-06-09T05:10:40.246Z,99.90
2018-06-09T05:12:45.113Z,99.90
2018-06-09T05:14:49.836Z,99.90
2018-06-09T05:16:54.761Z,99.90
2018-06-09T05:18:59.551Z,99.90
2018-06-09T05:21:04.456Z,99.90
2018-06-09T05:23:09.285Z,99.90
2018-06-09T05:25:14.321Z,99.90
2018-06-09T05:27:19.167Z,99.90
2018-06-09T05:29:24.094Z,99.90
2018-06-09T05:31:29.118Z,99.90
2018-06-09T05:33:33.990Z,99.90
2018-06-09T05:35:38.907Z,99.90
2018-06-09T05:37:45.290Z,99.90
2018-06-09T05:39:50.208Z,99.90
2018-06-09T05:41:55.152Z,99.90
2018-06-09T05:44:00.039Z,99.90
2018-06-09T05:46:05.320Z,99.90
2018-06-09T05:48:10.365Z,99.90
2018-06-09T05:50:15.460Z,99.90
2018-06-09T05:52:20.456Z,99.90
2018-06-09T05:54:25.354Z,99.90
2018-06-09T05:56:30.393Z,99.90
2018-06-09T05:58:35.584Z,99.90
2018-06-09T06:00:40.435Z,99.90
2018-06-09T06:02:47.380Z,99.90
2018-06-09T06:04:53.302Z,99.90
2018-06-09T06:06:59.843Z,99.90
2018-06-09T06:09:06.402Z,99.90
2018-06-09T06:11:11.782Z,99.90
2018-06-09T06:13:16.661Z,99.90
2018-06-09T06:15:21.444Z,99.90
2018-06-09T06:17:26.491Z,99.90
2018-06-09T06:19:31.255Z,99.90
2018-06-09T06:21:36.080Z,99.90
2018-06-09T06:23:40.856Z,99.90
2018-06-09T06:25:46.064Z,99.90
2018-06-09T06:27:51.031Z,99.90
2018-06-09T06:29:57.777Z,99.90
2018-06-09T06:32:03.007Z,99.90
2018-06-09T06:34:08.958Z,99.90
2018-06-09T06:36:13.851Z,99.90
2018-06-09T06:38:18.883Z,99.90
2018-06-09T06:40:23.890Z,99.90
2018-06-09T06:42:29.775Z,99.90
2018-06-09T06:44:35.108Z,99.90
2018-06-09T06:46:40.205Z,99.90
2018-06-09T06:48:45.543Z,99.90
2018-06-09T06:50:50.336Z,99.90
2018-06-09T06:52:55.189Z,99.90
2018-06-09T06:55:00.004Z,99.90
2018-06-09T06:59:09.722Z,99.90
2018-06-09T07:01:14.487Z,99.90
2018-06-09T07:03:19.241Z,99.90
2018-06-09T07:05:24.003Z,99.90
2018-06-09T07:07:28.881Z,99.90
2018-06-09T07:09:33.718Z,99.90
2018-06-09T07:11:38.645Z,99.90
2018-06-09T07:13:43.570Z,99.90
2018-06-09T07:15:48.424Z,99.90
2018-06-09T07:17:53.226Z,99.90
2018-06-09T07:19:57.986Z,99.90
2018-06-09T07:22:02.850Z,99.90
2018-06-09T07:24:07.550Z,99.90
2018-06-09T07:26:12.344Z,99.90
2018-06-09T07:28:17.213Z,99.90
2018-06-09T07:30:21.939Z,99.90
2018-06-09T07:32:26.799Z,99.90
2018-06-09T07:36:36.197Z,99.90
2018-06-09T07:38:41.784Z,99.90
2018-06-09T07:40:46.926Z,99.90
2018-06-09T07:42:51.877Z,99.90
2018-06-09T07:44:56.714Z,99.90
2018-06-09T07:47:01.543Z,99.90
2018-06-09T07:49:06.375Z,99.90
2018-06-09T07:51:11.182Z,99.90
2018-06-09T07:53:16.003Z,99.90
2018-06-09T07:55:20.703Z,99.90
2018-06-09T07:57:25.479Z,99.90
2018-06-09T07:59:30.313Z,99.90
2018-06-09T08:01:35.068Z,99.90
2018-06-09T08:05:54.897Z,99.90
2018-06-09T08:07:59.807Z,99.90
2018-06-09T08:10:04.561Z,99.90
2018-06-09T08:12:09.597Z,99.90
2018-06-09T08:14:14.529Z,99.90
2018-06-09T08:16:19.458Z,99.90
2018-06-09T08:18:24.392Z,99.90
2018-06-09T08:20:29.384Z,99.90
2018-06-09T08:22:34.661Z,99.90
2018-06-09T08:24:39.416Z,99.90
2018-06-09T08:26:44.226Z,99.90
2018-06-09T08:28:48.945Z,99.90
2018-06-09T08:30:53.681Z,99.90
2018-06-09T08:32:58.386Z,99.90
2018-06-09T08:35:03.148Z,99.90
2018-06-09T08:37:07.838Z,99.90
2018-06-09T08:39:12.700Z,99.90
2018-06-09T08:41:17.604Z,99.90
2018-06-09T08:43:22.371Z,99.90
2018-06-09T08:45:27.219Z,99.90
2018-06-09T08:47:32.021Z,99.90
2018-06-09T08:49:36.816Z,99.90
2018-06-09T08:51:41.607Z,99.90
2018-06-09T08:53:46.402Z,99.90
2018-06-09T08:55:51.468Z,99.90
2018-06-09T08:57:56.167Z,99.90
2018-06-09T09:00:01.128Z,99.90
2018-06-09T09:02:06.338Z,99.90
2018-06-09T09:04:11.237Z,99.90
2018-06-09T09:06:16.068Z,99.90
2018-06-09T09:08:20.874Z,99.90
2018-06-09T09:10:25.643Z,99.90
2018-06-09T09:12:30.388Z,99.90
2018-06-09T09:14:35.148Z,99.90
2018-06-09T09:16:39.919Z,99.90
2018-06-09T09:18:44.802Z,99.90
2018-06-09T09:20:50.004Z,99.90
2018-06-09T09:22:54.715Z,99.90
2018-06-09T09:25:00.570Z,99.90
2018-06-09T09:27:05.472Z,99.20
2018-06-09T09:29:10.320Z,99.40
2018-06-09T09:33:20.220Z,99.70
2018-06-09T09:35:25.015Z,99.50
2018-06-09T09:37:29.788Z,99.90
2018-06-09T09:39:34.633Z,99.40
2018-06-09T09:41:40.517Z,99.90
2018-06-09T09:43:45.185Z,99.80
2018-06-09T09:45:49.942Z,99.00
2018-06-09T09:47:54.665Z,98.30
2018-06-09T09:49:59.416Z,97.80
2018-06-09T09:52:04.217Z,97.80
2018-06-09T09:54:09.011Z,98.50
2018-06-09T09:56:14.675Z,98.50
2018-06-09T09:58:19.519Z,97.10
2018-06-09T10:00:29.389Z,97.50
2018-06-09T10:02:34.287Z,97.00
2018-06-09T10:04:39.386Z,97.10
2018-06-09T10:06:44.070Z,97.20
2018-06-09T10:08:48.849Z,97.60
2018-06-09T10:10:53.663Z,97.80
2018-06-09T10:12:58.496Z,97.40
2018-06-09T10:15:05.245Z,96.70
2018-06-09T10:17:10.469Z,96.70
2018-06-09T10:19:15.449Z,96.20
2018-06-09T10:21:20.454Z,95.80
2018-06-09T10:23:25.460Z,95.80
2018-06-09T10:25:30.417Z,95.90
2018-06-09T10:27:35.353Z,96.20
2018-06-09T10:29:40.504Z,96.60
2018-06-09T10:31:45.537Z,95.70
2018-06-09T10:33:50.695Z,96.30
2018-06-09T10:35:55.572Z,96.20
2018-06-09T10:38:00.563Z,95.20
2018-06-09T10:40:05.609Z,96.60
2018-06-09T10:42:10.719Z,96.40
2018-06-09T10:44:15.648Z,96.70
2018-06-09T10:46:20.962Z,96.70
2018-06-09T10:48:25.838Z,94.80
2018-06-09T10:50:30.667Z,95.60
2018-06-09T10:52:35.709Z,96.10
2018-06-09T10:54:40.705Z,96.10
2018-06-09T10:56:45.688Z,96.20
2018-06-09T10:58:50.890Z,95.80
2018-06-09T11:00:56.112Z,96.30
2018-06-09T11:03:01.242Z,96.10
2018-06-09T11:05:06.949Z,96.10
2018-06-09T11:07:12.063Z,95.50
2018-06-09T11:09:16.906Z,95.20
2018-06-09T11:11:21.702Z,95.80
2018-06-09T11:13:26.607Z,96.20
2018-06-09T11:15:31.728Z,95.70
2018-06-09T11:17:36.772Z,95.00
2018-06-09T11:19:41.789Z,95.80
2018-06-09T11:23:52.101Z,96.20
2018-06-09T11:25:57.177Z,96.30
2018-06-09T11:28:02.211Z,96.20
2018-06-09T11:30:07.215Z,96.40
2018-06-09T11:32:12.065Z,95.90
2018-06-09T11:34:16.988Z,95.40
2018-06-09T11:36:21.905Z,95.60
2018-06-09T11:38:27.093Z,95.30
2018-06-09T11:40:32.183Z,95.40
2018-06-09T11:42:37.260Z,95.20
2018-06-09T11:44:42.356Z,95.30
2018-06-09T11:46:47.312Z,95.10
2018-06-09T11:48:53.430Z,94.20
2018-06-09T11:50:58.617Z,94.60
2018-06-09T11:53:03.680Z,94.70
2018-06-09T11:55:08.944Z,95.20
2018-06-09T11:57:14.280Z,94.90
2018-06-09T11:59:19.181Z,95.40
2018-06-09T12:01:25.092Z,94.50
2018-06-09T12:03:30.132Z,94.00
2018-06-09T12:05:35.235Z,94.00
2018-06-09T12:07:40.240Z,94.30
2018-06-09T12:09:45.373Z,93.30
2018-06-09T12:11:50.309Z,92.50
2018-06-09T12:13:55.619Z,93.60
2018-06-09T12:16:01.570Z,94.20
2018-06-09T12:18:07.477Z,94.70
2018-06-09T12:20:12.636Z,94.70
2018-06-09T12:22:17.811Z,94.50
2018-06-09T12:24:23.387Z,93.90
2018-06-09T12:26:28.456Z,93.50
2018-06-09T12:28:33.487Z,92.90
2018-06-09T12:30:39.061Z,93.70
2018-06-09T12:32:44.423Z,93.20
2018-06-09T12:34:50.158Z,92.30
2018-06-09T12:36:55.124Z,92.50
2018-06-09T12:39:00.030Z,92.40
2018-06-09T12:41:05.162Z,92.20
2018-06-09T12:43:10.567Z,91.50
2018-06-09T12:45:15.849Z,91.70
2018-06-09T12:47:21.408Z,91.80
2018-06-09T12:49:26.397Z,91.10
2018-06-09T12:51:31.435Z,90.90
2018-06-09T12:53:36.316Z,90.60
2018-06-09T12:55:41.232Z,91.70
2018-06-09T12:57:46.059Z,92.10
2018-06-09T12:59:51.106Z,91.10
2018-06-09T13:01:56.107Z,92.20
2018-06-09T13:04:01.053Z,92.60
2018-06-09T13:06:06.075Z,92.40
2018-06-09T13:08:11.172Z,92.50
2018-06-09T13:10:16.049Z,92.60
2018-06-09T13:12:20.911Z,92.70
2018-06-09T13:14:25.976Z,94.20
2018-06-09T13:16:31.087Z,92.30
2018-06-09T13:18:36.337Z,91.20
2018-06-09T13:20:41.646Z,91.10
2018-06-09T13:22:46.644Z,91.10
2018-06-09T13:24:51.776Z,91.10
2018-06-09T13:26:58.100Z,90.80
2018-06-09T13:29:09.978Z,91.00
2018-06-09T13:31:14.978Z,91.20
2018-06-09T13:33:20.116Z,91.10
2018-06-09T13:35:25.124Z,90.80
2018-06-09T13:37:30.123Z,90.10
2018-06-09T13:39:35.198Z,90.30
2018-06-09T13:41:40.103Z,90.10
2018-06-09T13:43:45.048Z,90.00
2018-06-09T13:45:49.984Z,89.40
2018-06-09T13:47:57.689Z,87.90
2018-06-09T13:50:08.276Z,89.80
2018-06-09T13:52:13.293Z,90.20
2018-06-09T13:54:18.284Z,87.40
2018-06-09T13:56:23.379Z,88.00
2018-06-09T13:58:28.390Z,87.80
2018-06-09T14:00:33.293Z,86.20
2018-06-09T14:02:38.162Z,84.80
2018-06-09T14:06:46.065Z,82.50
2018-06-09T14:11:06.097Z,81.30
2018-06-09T14:13:11.080Z,85.10
2018-06-09T14:15:16.209Z,83.10
2018-06-09T14:17:21.312Z,83.60
2018-06-09T14:19:26.194Z,82.50
2018-06-09T14:21:31.293Z,83.10
2018-06-09T14:23:36.016Z,82.00
2018-06-09T14:25:40.994Z,81.80
2018-06-09T14:27:46.166Z,77.90
2018-06-09T14:29:51.179Z,78.70
2018-06-09T14:31:56.134Z,78.90
2018-06-09T14:34:01.458Z,82.10
2018-06-09T14:36:06.696Z,83.80
2018-06-09T14:38:11.774Z,83.30
2018-06-09T14:40:16.629Z,82.80
2018-06-09T14:42:21.595Z,83.30
2018-06-09T14:44:26.448Z,83.70
2018-06-09T14:46:31.338Z,83.80
2018-06-09T14:48:38.285Z,82.60
2018-06-09T14:50:43.501Z,81.50
2018-06-09T14:52:48.495Z,82.50
2018-06-09T14:54:53.352Z,85.70
2018-06-09T14:56:58.440Z,84.60
2018-06-09T14:59:03.402Z,84.70
2018-06-09T15:01:08.549Z,84.30
2018-06-09T15:03:13.497Z,84.50
2018-06-09T15:05:18.527Z,85.40
2018-06-09T15:07:23.632Z,86.90
2018-06-09T15:09:28.492Z,88.00
2018-06-09T15:11:34.307Z,85.50
2018-06-09T15:13:39.430Z,84.20
2018-06-09T15:15:44.558Z,83.50
2018-06-09T15:17:49.449Z,83.70
2018-06-09T15:19:54.521Z,85.20
2018-06-09T15:21:59.586Z,85.10
2018-06-09T15:24:04.606Z,84.40
2018-06-09T15:26:09.666Z,83.70
2018-06-09T15:28:14.637Z,82.80
2018-06-09T15:30:19.868Z,84.00
2018-06-09T15:32:25.000Z,84.50
2018-06-09T15:34:30.347Z,84.30
2018-06-09T15:36:35.923Z,84.10
2018-06-09T15:38:41.151Z,83.40
2018-06-09T15:40:46.230Z,83.50
2018-06-09T15:42:51.226Z,82.80
2018-06-09T15:44:56.301Z,83.90
2018-06-09T15:47:01.432Z,84.40
2018-06-09T15:49:06.900Z,85.50
2018-06-09T15:51:11.977Z,83.00
2018-06-09T15:53:19.711Z,82.90
2018-06-09T15:55:24.709Z,83.50
2018-06-09T15:57:29.684Z,83.90
2018-06-09T15:59:34.728Z,83.60
2018-06-09T16:01:39.735Z,83.90
2018-06-09T16:03:44.689Z,84.40
2018-06-09T16:05:49.873Z,83.00
2018-06-09T16:07:54.836Z,83.10
2018-06-09T16:09:59.662Z,82.50
2018-06-09T16:12:04.493Z,81.60
2018-06-09T16:14:10.115Z,83.60
2018-06-09T16:16:16.593Z,83.70
2018-06-09T16:18:21.693Z,83.60
2018-06-09T16:20:26.854Z,83.20
2018-06-09T16:22:31.948Z,82.60
2018-06-09T16:24:36.852Z,82.20
2018-06-09T16:26:41.950Z,83.10
2018-06-09T16:28:46.802Z,83.40
2018-06-09T16:30:54.539Z,82.00
2018-06-09T16:32:59.439Z,80.60
2018-06-09T16:35:04.361Z,81.10
2018-06-09T16:37:09.367Z,80.20
2018-06-09T16:39:14.377Z,79.60
2018-06-09T16:41:19.390Z,80.10
2018-06-09T16:43:24.277Z,80.30
2018-06-09T16:45:29.206Z,80.40
2018-06-09T16:47:34.134Z,80.70
2018-06-09T16:49:39.209Z,80.40
2018-06-09T16:51:44.165Z,79.80
2018-06-09T16:53:49.012Z,80.30
2018-06-09T16:55:53.809Z,80.30
2018-06-09T16:57:58.714Z,79.80
2018-06-09T17:00:03.773Z,78.60
2018-06-09T17:02:08.669Z,78.70
2018-06-09T17:04:13.366Z,79.20
2018-06-09T17:06:18.233Z,79.90
2018-06-09T17:08:23.662Z,80.20
2018-06-09T17:10:28.426Z,79.40
2018-06-09T17:12:33.212Z,79.80
2018-06-09T17:14:37.998Z,79.50
2018-06-09T17:16:43.233Z,80.20
2018-06-09T17:18:48.139Z,80.20
2018-06-09T17:20:53.348Z,80.90
2018-06-09T17:22:58.529Z,80.50
2018-06-09T17:25:03.626Z,80.00
2018-06-09T17:27:08.672Z,80.60
2018-06-09T17:29:13.599Z,81.70
2018-06-09T17:31:18.493Z,81.50
2018-06-09T17:33:23.485Z,81.70
2018-06-09T17:35:28.844Z,82.20
2018-06-09T17:37:34.246Z,82.90
2018-06-09T17:39:39.238Z,83.10
2018-06-09T17:41:44.134Z,83.40
2018-06-09T17:43:49.010Z,83.00
2018-06-09T17:45:53.992Z,83.20
2018-06-09T17:47:58.938Z,83.10
2018-06-09T17:50:04.059Z,83.60
2018-06-09T17:52:08.926Z,84.40
2018-06-09T17:54:13.798Z,83.60
2018-06-09T17:56:18.618Z,84.20
2018-06-09T17:58:24.473Z,84.10
2018-06-09T18:00:29.474Z,84.50
2018-06-09T18:02:34.395Z,85.40
2018-06-09T18:04:39.314Z,84.90
2018-06-09T18:06:45.615Z,85.20
2018-06-09T18:08:50.998Z,85.80
2018-06-09T18:10:55.924Z,85.40
2018-06-09T18:13:00.835Z,84.70
2018-06-09T18:15:05.694Z,84.80
2018-06-09T18:17:10.475Z,85.40
2018-06-09T18:19:15.299Z,85.00
2018-06-09T18:21:20.294Z,85.70
2018-06-09T18:23:25.193Z,86.40
2018-06-09T18:25:30.148Z,86.40
2018-06-09T18:27:35.153Z,87.60
2018-06-09T18:29:39.957Z,88.20
2018-06-09T18:31:44.795Z,89.40
2018-06-09T18:33:49.972Z,89.70
2018-06-09T18:35:54.815Z,89.70
2018-06-09T18:37:59.657Z,90.00
2018-06-09T18:40:04.661Z,90.30
2018-06-09T18:42:09.594Z,90.80
2018-06-09T18:44:14.344Z,91.00
2018-06-09T18:46:19.215Z,91.00
2018-06-09T18:48:23.981Z,91.30
2018-06-09T18:50:28.923Z,91.30
2018-06-09T18:52:33.788Z,91.70
2018-06-09T18:54:38.948Z,91.80
2018-06-09T18:56:43.943Z,91.80
2018-06-09T18:58:49.046Z,91.90
2018-06-09T19:00:54.298Z,91.60
2018-06-09T19:02:59.769Z,91.80
2018-06-09T19:05:04.824Z,91.90
2018-06-09T19:07:09.741Z,91.90
2018-06-09T19:09:14.785Z,91.70
2018-06-09T19:11:19.817Z,91.90
2018-06-09T19:13:25.136Z,92.10
2018-06-09T19:15:30.255Z,92.30
2018-06-09T19:17:35.328Z,92.10
2018-06-09T19:19:40.415Z,92.30
2018-06-09T19:21:45.292Z,92.10
2018-06-09T19:23:50.186Z,91.90
2018-06-09T19:25:55.076Z,92.40
2018-06-09T19:27:59.962Z,92.50
2018-06-09T19:30:05.109Z,92.50
2018-06-09T19:32:10.066Z,92.50
2018-06-09T19:34:14.871Z,92.70
2018-06-09T19:36:19.685Z,92.80
2018-06-09T19:38:24.544Z,92.80
2018-06-09T19:40:29.389Z,92.90
2018-06-09T19:42:34.426Z,92.90
2018-06-09T19:44:39.349Z,93.40
2018-06-09T19:46:44.217Z,93.90
2018-06-09T19:48:49.266Z,93.80
2018-06-09T19:50:54.568Z,93.80
2018-06-09T19:52:59.742Z,93.80
2018-06-09T19:55:04.592Z,94.10
2018-06-09T19:57:09.799Z,94.40
2018-06-09T19:59:14.641Z,94.30
2018-06-09T20:01:19.627Z,94.00
2018-06-09T20:03:25.046Z,94.30
2018-06-09T20:05:29.858Z,94.40
2018-06-09T20:07:34.780Z,94.80
2018-06-09T20:09:40.061Z,94.80
2018-06-09T20:11:45.078Z,94.90
2018-06-09T20:13:49.974Z,94.90
2018-06-09T20:15:54.935Z,95.10
2018-06-09T20:18:00.029Z,95.30
2018-06-09T20:20:07.788Z,95.30
2018-06-09T20:22:12.909Z,95.40
2018-06-09T20:24:17.931Z,95.50
2018-06-09T20:26:22.799Z,95.50
2018-06-09T20:28:28.041Z,95.40
2018-06-09T20:30:32.963Z,95.20
2018-06-09T20:32:37.809Z,95.40
2018-06-09T20:34:42.793Z,95.40
2018-06-09T20:36:48.052Z,95.70
2018-06-09T20:38:53.598Z,95.60
2018-06-09T20:40:58.357Z,95.40
2018-06-09T20:43:03.291Z,95.60
2018-06-09T20:45:08.250Z,96.30
2018-06-09T20:47:13.305Z,96.00
2018-06-09T20:49:18.684Z,96.10
2018-06-09T20:51:23.653Z,96.20
2018-06-09T20:53:28.452Z,96.30
2018-06-09T20:55:33.294Z,96.40
2018-06-09T20:57:38.148Z,96.30
2018-06-09T20:59:42.989Z,96.50
2018-06-09T21:01:47.934Z,96.50
2018-06-09T21:03:52.678Z,96.50
2018-06-09T21:05:57.835Z,96.70
2018-06-09T21:08:03.153Z,96.80
2018-06-09T21:10:08.036Z,97.10
2018-06-09T21:12:13.043Z,97.30
2018-06-09T21:14:17.875Z,97.50
2018-06-09T21:16:22.758Z,97.60
2018-06-09T21:18:27.631Z,97.70
2018-06-09T21:20:32.443Z,98.00
2018-06-09T21:22:37.406Z,98.20
2018-06-09T21:24:42.294Z,98.30
2018-06-09T21:26:52.205Z,98.20
2018-06-09T21:28:57.506Z,98.20
2018-06-09T21:31:07.459Z,98.70
2018-06-09T21:35:35.914Z,98.60
2018-06-09T21:37:47.461Z,98.70
2018-06-09T21:39:58.867Z,99.20
2018-06-09T21:42:09.005Z,99.20
2018-06-09T21:44:14.608Z,99.40
2018-06-09T21:46:24.578Z,99.70
2018-06-09T21:48:29.609Z,99.80
2018-06-09T21:50:34.606Z,99.90
2018-06-09T21:52:39.621Z,99.90
2018-06-09T21:54:44.757Z,99.90
2018-06-09T21:56:49.684Z,99.90
2018-06-09T21:58:54.716Z,99.90
2018-06-09T22:00:59.626Z,99.70
2018-06-09T22:03:04.599Z,99.90
2018-06-09T22:05:09.637Z,99.90
2018-06-09T22:07:14.530Z,99.90
2018-06-09T22:09:19.472Z,99.90
2018-06-09T22:11:24.276Z,99.90
2018-06-09T22:13:29.753Z,99.90
2018-06-09T22:15:34.491Z,99.90
2018-06-09T22:17:39.438Z,99.90
2018-06-09T22:19:44.318Z,99.90
2018-06-09T22:21:49.312Z,99.90
2018-06-09T22:23:54.000Z,99.90
2018-06-09T22:26:00.698Z,99.90
2018-06-09T22:28:05.459Z,99.90
2018-06-09T22:30:10.215Z,99.90
2018-06-09T22:32:14.911Z,99.90
2018-06-09T22:34:19.688Z,99.90
2018-06-09T22:36:24.474Z,99.90
2018-06-09T22:38:29.586Z,99.90
2018-06-09T22:40:34.444Z,99.90
2018-06-09T22:42:39.315Z,99.90
2018-06-09T22:44:44.112Z,99.90
2018-06-09T22:46:48.949Z,99.90
2018-06-09T22:48:53.568Z,99.90
2018-06-09T22:50:58.311Z,99.90
2018-06-09T22:53:03.110Z,99.90
2018-06-09T22:55:07.882Z,99.90
2018-06-09T22:57:12.695Z,99.90
2018-06-09T22:59:17.651Z,99.90
2018-06-09T23:01:22.502Z,99.90
2018-06-09T23:03:27.447Z,99.90
2018-06-09T23:05:32.316Z,99.90
2018-06-09T23:07:37.107Z,99.90
2018-06-09T23:09:42.436Z,99.90
2018-06-09T23:11:47.378Z,99.90
2018-06-09T23:13:52.131Z,99.90
2018-06-09T23:15:57.404Z,99.90
2018-06-09T23:18:02.315Z,99.90
2018-06-09T23:20:07.283Z,99.90
2018-06-09T23:22:12.122Z,99.90
2018-06-09T23:24:16.827Z,99.90
2018-06-09T23:26:21.663Z,99.90
2018-06-09T23:28:26.714Z,99.90
2018-06-09T23:30:31.481Z,99.90
2018-06-09T23:32:36.219Z,99.90
2018-06-09T23:34:40.898Z,99.90
2018-06-09T23:36:45.786Z,99.90
2018-06-09T23:38:50.789Z,99.90
2018-06-09T23:40:55.480Z,99.90
2018-06-09T23:43:00.307Z,99.90
2018-06-09T23:45:05.266Z,99.90
2018-06-09T23:47:10.042Z,99.90
2018-06-09T23:49:14.838Z,99.90
2018-06-09T23:51:19.716Z,99.90
2018-06-09T23:53:26.474Z,99.90
2018-06-09T23:55:31.345Z,99.90
2018-06-09T23:57:36.128Z,99.90
2018-06-09T23:59:40.882Z,99.90
